sensor_id;sensor_type;location;lat;lon;timestamp;pressure;altitude;pressure_sealevel;temperature;humidity
64739;BME280;51175;51.186;0.276;2024-02-04T00:00:28;102328.75;;;12.10;89.83
64739;BME280;51175;51.186;0.276;2024-02-04T00:00:59;102327.16;;;12.09;89.86
64739;BME280;51175;51.186;0.276;2024-02-04T00:01:39;102329.81;;;12.09;90.07
64739;BME280;51175;51.186;0.276;2024-02-04T00:02:15;102331.41;;;12.10;89.88
64739;BME280;51175;51.186;0.276;2024-02-04T00:02:48;102336.72;;;12.10;89.83
64739;BME280;51175;51.186;0.276;2024-02-04T00:03:21;102331.41;;;12.10;90.14
64739;BME280;51175;51.186;0.276;2024-02-04T00:03:56;102338.34;;;12.11;89.91
64739;BME280;51175;51.186;0.276;2024-02-04T00:04:27;102337.53;;;12.11;90.09
64739;BME280;51175;51.186;0.276;2024-02-04T00:05:20;102336.16;;;12.08;90.20
64739;BME280;51175;51.186;0.276;2024-02-04T00:05:51;102342.00;;;12.10;89.92
64739;BME280;51175;51.186;0.276;2024-02-04T00:06:22;102333.06;;;12.11;89.92
64739;BME280;51175;51.186;0.276;2024-02-04T00:06:53;102336.72;;;12.10;90.11
64739;BME280;51175;51.186;0.276;2024-02-04T00:07:23;102339.34;;;12.10;89.97
64739;BME280;51175;51.186;0.276;2024-02-04T00:07:54;102347.31;;;12.10;90.04
64739;BME280;51175;51.186;0.276;2024-02-04T00:08:30;102339.00;;;12.07;89.68
64739;BME280;51175;51.186;0.276;2024-02-04T00:09:01;102338.78;;;12.08;90.00
64739;BME280;51175;51.186;0.276;2024-02-04T00:09:39;102344.50;;;12.05;89.82
64739;BME280;51175;51.186;0.276;2024-02-04T00:10:11;102346.94;;;12.07;90.13
64739;BME280;51175;51.186;0.276;2024-02-04T00:10:52;102339.59;;;12.09;90.25
64739;BME280;51175;51.186;0.276;2024-02-04T00:11:35;102346.13;;;12.06;89.92
64739;BME280;51175;51.186;0.276;2024-02-04T00:12:11;102341.63;;;12.07;89.90
64739;BME280;51175;51.186;0.276;2024-02-04T00:13:05;102346.56;;;12.03;90.14
64739;BME280;51175;51.186;0.276;2024-02-04T00:13:39;102347.16;;;12.05;89.80
64739;BME280;51175;51.186;0.276;2024-02-04T00:14:13;102345.28;;;12.05;90.23
64739;BME280;51175;51.186;0.276;2024-02-04T00:14:52;102341.88;;;12.05;89.92
64739;BME280;51175;51.186;0.276;2024-02-04T00:15:33;102342.09;;;12.03;89.86
64739;BME280;51175;51.186;0.276;2024-02-04T00:16:06;102346.13;;;12.06;90.21
64739;BME280;51175;51.186;0.276;2024-02-04T00:16:47;102337.56;;;12.04;90.24
64739;BME280;51175;51.186;0.276;2024-02-04T00:17:22;102340.81;;;12.06;90.23
64739;BME280;51175;51.186;0.276;2024-02-04T00:18:05;102342.09;;;12.03;89.95
64739;BME280;51175;51.186;0.276;2024-02-04T00:18:37;102344.72;;;12.03;90.01
64739;BME280;51175;51.186;0.276;2024-02-04T00:19:10;102343.91;;;12.03;90.39
64739;BME280;51175;51.186;0.276;2024-02-04T00:19:41;102343.31;;;12.01;89.97
64739;BME280;51175;51.186;0.276;2024-02-04T00:20:14;102340.66;;;12.01;90.12
64739;BME280;51175;51.186;0.276;2024-02-04T00:20:48;102342.31;;;12.02;90.24
64739;BME280;51175;51.186;0.276;2024-02-04T00:21:21;102342.31;;;12.02;90.13
64739;BME280;51175;51.186;0.276;2024-02-04T00:22:31;102337.00;;;12.02;90.01
64739;BME280;51175;51.186;0.276;2024-02-04T00:23:03;102339.06;;;12.00;90.23
64739;BME280;51175;51.186;0.276;2024-02-04T00:23:34;102345.97;;;12.01;90.32
64739;BME280;51175;51.186;0.276;2024-02-04T00:24:05;102347.81;;;12.00;90.15
64739;BME280;51175;51.186;0.276;2024-02-04T00:24:35;102349.44;;;12.01;90.22
64739;BME280;51175;51.186;0.276;2024-02-04T00:25:06;102347.81;;;12.00;90.09
64739;BME280;51175;51.186;0.276;2024-02-04T00:25:40;102343.53;;;11.99;90.17
64739;BME280;51175;51.186;0.276;2024-02-04T00:26:11;102346.19;;;11.99;90.37
64739;BME280;51175;51.186;0.276;2024-02-04T00:26:42;102345.38;;;11.99;90.36
64739;BME280;51175;51.186;0.276;2024-02-04T00:27:21;102344.38;;;12.00;90.24
64739;BME280;51175;51.186;0.276;2024-02-04T00:27:52;102344.38;;;12.00;90.59
64739;BME280;51175;51.186;0.276;2024-02-04T00:28:23;102342.53;;;12.00;90.10
64739;BME280;51175;51.186;0.276;2024-02-04T00:28:53;102341.72;;;12.00;90.20
64739;BME280;51175;51.186;0.276;2024-02-04T00:29:24;102347.81;;;12.00;90.36
64739;BME280;51175;51.186;0.276;2024-02-04T00:30:02;102344.00;;;11.96;90.18
64739;BME280;51175;51.186;0.276;2024-02-04T00:30:33;102345.38;;;11.99;90.40
64739;BME280;51175;51.186;0.276;2024-02-04T00:31:03;102349.88;;;11.98;90.36
64739;BME280;51175;51.186;0.276;2024-02-04T00:31:34;102347.22;;;11.98;90.28
64739;BME280;51175;51.186;0.276;2024-02-04T00:32:05;102354.34;;;11.98;90.53
64739;BME280;51175;51.186;0.276;2024-02-04T00:32:35;102355.19;;;11.98;90.30
64739;BME280;51175;51.186;0.276;2024-02-04T00:33:06;102344.59;;;11.98;90.43
64739;BME280;51175;51.186;0.276;2024-02-04T00:33:37;102346.41;;;11.98;90.57
64739;BME280;51175;51.186;0.276;2024-02-04T00:34:08;102344.59;;;11.98;90.33
64739;BME280;51175;51.186;0.276;2024-02-04T00:34:38;102350.66;;;11.99;90.29
64739;BME280;51175;51.186;0.276;2024-02-04T00:35:09;102343.53;;;11.99;90.40
64739;BME280;51175;51.186;0.276;2024-02-04T00:35:40;102339.06;;;12.00;90.47
64739;BME280;51175;51.186;0.276;2024-02-04T00:36:10;102341.13;;;11.98;90.54
64739;BME280;51175;51.186;0.276;2024-02-04T00:36:41;102341.13;;;11.98;90.62
64739;BME280;51175;51.186;0.276;2024-02-04T00:37:11;102336.88;;;11.97;90.60
64739;BME280;51175;51.186;0.276;2024-02-04T00:37:42;102337.44;;;11.99;90.67
64739;BME280;51175;51.186;0.276;2024-02-04T00:38:12;102333.19;;;11.98;90.69
64739;BME280;51175;51.186;0.276;2024-02-04T00:38:43;102340.31;;;11.97;90.52
64739;BME280;51175;51.186;0.276;2024-02-04T00:39:16;102336.88;;;11.97;90.56
64739;BME280;51175;51.186;0.276;2024-02-04T00:39:47;102337.66;;;11.97;90.44
64739;BME280;51175;51.186;0.276;2024-02-04T00:40:17;102332.34;;;11.97;90.56
64739;BME280;51175;51.186;0.276;2024-02-04T00:40:48;102319.34;;;11.96;90.53
64739;BME280;51175;51.186;0.276;2024-02-04T00:41:18;102328.91;;;11.97;90.71
64739;BME280;51175;51.186;0.276;2024-02-04T00:41:49;102328.09;;;11.96;90.38
64739;BME280;51175;51.186;0.276;2024-02-04T00:42:20;102327.28;;;11.96;90.60
64739;BME280;51175;51.186;0.276;2024-02-04T00:42:50;102328.09;;;11.96;90.57
64739;BME280;51175;51.186;0.276;2024-02-04T00:43:21;102326.28;;;11.97;90.73
64739;BME280;51175;51.186;0.276;2024-02-04T00:43:51;102330.75;;;11.96;90.57
64739;BME280;51175;51.186;0.276;2024-02-04T00:44:22;102325.44;;;11.96;90.54
64739;BME280;51175;51.186;0.276;2024-02-04T00:44:53;102329.72;;;11.97;90.62
64739;BME280;51175;51.186;0.276;2024-02-04T00:45:24;102327.06;;;11.97;90.66
64739;BME280;51175;51.186;0.276;2024-02-04T00:45:58;102326.84;;;11.99;90.51
64739;BME280;51175;51.186;0.276;2024-02-04T00:46:30;102326.84;;;11.99;90.77
64739;BME280;51175;51.186;0.276;2024-02-04T00:47:00;102320.53;;;12.00;90.50
64739;BME280;51175;51.186;0.276;2024-02-04T00:47:31;102332.94;;;11.99;90.51
64739;BME280;51175;51.186;0.276;2024-02-04T00:48:01;102329.47;;;11.99;90.49
64739;BME280;51175;51.186;0.276;2024-02-04T00:48:32;102333.78;;;12.00;90.50
64739;BME280;51175;51.186;0.276;2024-02-04T00:49:02;102331.13;;;12.00;90.41
64739;BME280;51175;51.186;0.276;2024-02-04T00:49:33;102336.19;;;12.01;90.75
64739;BME280;51175;51.186;0.276;2024-02-04T00:50:04;102327.44;;;12.01;90.57
64739;BME280;51175;51.186;0.276;2024-02-04T00:50:34;102327.44;;;12.01;90.71
64739;BME280;51175;51.186;0.276;2024-02-04T00:51:05;102333.53;;;12.01;90.67
64739;BME280;51175;51.186;0.276;2024-02-04T00:51:35;102322.94;;;12.01;90.61
64739;BME280;51175;51.186;0.276;2024-02-04T00:52:06;102322.13;;;12.01;90.80
64739;BME280;51175;51.186;0.276;2024-02-04T00:52:38;102328.47;;;12.00;90.39
64739;BME280;51175;51.186;0.276;2024-02-04T00:53:09;102320.53;;;12.00;90.54
64739;BME280;51175;51.186;0.276;2024-02-04T00:53:39;102317.88;;;12.00;90.76
64739;BME280;51175;51.186;0.276;2024-02-04T00:54:10;102323.19;;;12.00;90.78
64739;BME280;51175;51.186;0.276;2024-02-04T00:54:40;102322.34;;;11.99;90.41
64739;BME280;51175;51.186;0.276;2024-02-04T00:55:10;102317.88;;;12.00;90.56
64739;BME280;51175;51.186;0.276;2024-02-04T00:55:41;102321.53;;;11.99;90.48
64739;BME280;51175;51.186;0.276;2024-02-04T00:56:11;102316.25;;;11.99;90.48
64739;BME280;51175;51.186;0.276;2024-02-04T00:56:42;102324.19;;;11.99;90.63
64739;BME280;51175;51.186;0.276;2024-02-04T00:57:14;102314.63;;;11.98;90.32
64739;BME280;51175;51.186;0.276;2024-02-04T00:57:44;102311.19;;;11.97;90.33
64739;BME280;51175;51.186;0.276;2024-02-04T00:58:15;102321.75;;;11.97;90.30
64739;BME280;51175;51.186;0.276;2024-02-04T00:58:48;102319.34;;;11.96;90.55
64739;BME280;51175;51.186;0.276;2024-02-04T00:59:19;102316.47;;;11.97;90.38
64739;BME280;51175;51.186;0.276;2024-02-04T00:59:49;102315.69;;;11.97;90.47
64739;BME280;51175;51.186;0.276;2024-02-04T01:00:20;102323.63;;;11.97;90.59
64739;BME280;51175;51.186;0.276;2024-02-04T01:00:51;102320.16;;;11.96;90.70
64739;BME280;51175;51.186;0.276;2024-02-04T01:01:21;102325.44;;;11.96;90.46
64739;BME280;51175;51.186;0.276;2024-02-04T01:01:52;102324.63;;;11.96;90.21
64739;BME280;51175;51.186;0.276;2024-02-04T01:02:23;102328.09;;;11.96;90.58
64739;BME280;51175;51.186;0.276;2024-02-04T01:02:53;102331.56;;;11.97;90.41
64739;BME280;51175;51.186;0.276;2024-02-04T01:03:23;102326.50;;;11.95;90.62
64739;BME280;51175;51.186;0.276;2024-02-04T01:03:54;102327.28;;;11.96;90.44
64739;BME280;51175;51.186;0.276;2024-02-04T01:04:25;102329.94;;;11.96;90.18
64739;BME280;51175;51.186;0.276;2024-02-04T01:04:55;102324.63;;;11.96;90.45
64739;BME280;51175;51.186;0.276;2024-02-04T01:05:26;102324.63;;;11.96;90.47
64739;BME280;51175;51.186;0.276;2024-02-04T01:05:57;102327.28;;;11.96;90.45
64739;BME280;51175;51.186;0.276;2024-02-04T01:06:28;102326.28;;;11.97;90.57
64739;BME280;51175;51.186;0.276;2024-02-04T01:06:59;102326.28;;;11.97;90.45
64739;BME280;51175;51.186;0.276;2024-02-04T01:07:30;102329.94;;;11.96;90.52
64739;BME280;51175;51.186;0.276;2024-02-04T01:08:00;102323.63;;;11.97;90.44
64739;BME280;51175;51.186;0.276;2024-02-04T01:08:30;102328.69;;;11.98;90.33
64739;BME280;51175;51.186;0.276;2024-02-04T01:09:01;102331.56;;;11.97;90.41
64739;BME280;51175;51.186;0.276;2024-02-04T01:09:32;102330.53;;;11.98;90.40
64739;BME280;51175;51.186;0.276;2024-02-04T01:10:02;102333.19;;;11.98;90.41
64739;BME280;51175;51.186;0.276;2024-02-04T01:10:33;102329.72;;;11.97;90.33
64739;BME280;51175;51.186;0.276;2024-02-04T01:11:05;102329.72;;;11.97;90.37
64739;BME280;51175;51.186;0.276;2024-02-04T01:11:36;102333.41;;;11.96;90.66
64739;BME280;51175;51.186;0.276;2024-02-04T01:12:07;102328.91;;;11.97;90.60
64739;BME280;51175;51.186;0.276;2024-02-04T01:12:40;102332.59;;;11.96;90.48
64739;BME280;51175;51.186;0.276;2024-02-04T01:13:11;102319.34;;;11.96;90.54
64739;BME280;51175;51.186;0.276;2024-02-04T01:13:41;102327.28;;;11.96;90.29
64739;BME280;51175;51.186;0.276;2024-02-04T01:14:12;102321.44;;;11.94;90.36
64739;BME280;51175;51.186;0.276;2024-02-04T01:14:42;102316.91;;;11.94;90.33
64739;BME280;51175;51.186;0.276;2024-02-04T01:15:13;102317.13;;;11.92;90.57
64739;BME280;51175;51.186;0.276;2024-02-04T01:15:44;102319.34;;;11.96;90.52
64739;BME280;51175;51.186;0.276;2024-02-04T01:16:14;102319.34;;;11.96;90.42
64739;BME280;51175;51.186;0.276;2024-02-04T01:16:45;102319.34;;;11.96;90.64
64739;BME280;51175;51.186;0.276;2024-02-04T01:17:15;102320.38;;;11.95;90.67
64739;BME280;51175;51.186;0.276;2024-02-04T01:17:46;102327.28;;;11.96;90.62
64739;BME280;51175;51.186;0.276;2024-02-04T01:18:16;102326.50;;;11.95;90.49
64739;BME280;51175;51.186;0.276;2024-02-04T01:18:47;102335.44;;;11.94;90.64
64739;BME280;51175;51.186;0.276;2024-02-04T01:19:17;102323.84;;;11.95;90.18
64739;BME280;51175;51.186;0.276;2024-02-04T01:19:48;102333.63;;;11.95;90.58
64739;BME280;51175;51.186;0.276;2024-02-04T01:20:18;102333.63;;;11.95;90.37
64739;BME280;51175;51.186;0.276;2024-02-04T01:20:49;102329.38;;;11.94;90.51
64739;BME280;51175;51.186;0.276;2024-02-04T01:21:19;102325.09;;;11.92;90.37
64739;BME280;51175;51.186;0.276;2024-02-04T01:21:49;102322.44;;;11.92;90.59
64739;BME280;51175;51.186;0.276;2024-02-04T01:22:20;102319.78;;;11.92;90.54
64739;BME280;51175;51.186;0.276;2024-02-04T01:22:55;102324.88;;;11.94;90.49
64739;BME280;51175;51.186;0.276;2024-02-04T01:23:26;102314.28;;;11.94;90.47
64739;BME280;51175;51.186;0.276;2024-02-04T01:23:56;102320.38;;;11.95;90.53
64739;BME280;51175;51.186;0.276;2024-02-04T01:24:27;102320.38;;;11.95;90.51
64739;BME280;51175;51.186;0.276;2024-02-04T01:24:57;102311.63;;;11.94;90.40
64739;BME280;51175;51.186;0.276;2024-02-04T01:25:28;102318.78;;;11.94;90.36
64739;BME280;51175;51.186;0.276;2024-02-04T01:25:58;102311.63;;;11.94;90.27
64739;BME280;51175;51.186;0.276;2024-02-04T01:26:29;102322.22;;;11.94;90.40
64739;BME280;51175;51.186;0.276;2024-02-04T01:26:59;102321.44;;;11.94;90.19
64739;BME280;51175;51.186;0.276;2024-02-04T01:27:33;102318.19;;;11.91;90.38
64739;BME280;51175;51.186;0.276;2024-02-04T01:28:04;102319.78;;;11.92;90.61
64739;BME280;51175;51.186;0.276;2024-02-04T01:28:35;102314.50;;;11.92;90.41
64739;BME280;51175;51.186;0.276;2024-02-04T01:29:05;102316.34;;;11.92;90.58
64739;BME280;51175;51.186;0.276;2024-02-04T01:29:36;102311.84;;;11.92;90.48
64739;BME280;51175;51.186;0.276;2024-02-04T01:30:07;102324.28;;;11.92;90.43
64739;BME280;51175;51.186;0.276;2024-02-04T01:30:43;102317.59;;;11.89;90.47
64739;BME280;51175;51.186;0.276;2024-02-04T01:31:14;102313.94;;;11.90;90.61
64739;BME280;51175;51.186;0.276;2024-02-04T01:31:44;102320.00;;;11.91;90.67
64739;BME280;51175;51.186;0.276;2024-02-04T01:32:15;102322.44;;;11.92;90.45
64739;BME280;51175;51.186;0.276;2024-02-04T01:32:46;102312.06;;;11.91;90.53
64739;BME280;51175;51.186;0.276;2024-02-04T01:33:16;102322.44;;;11.92;90.56
64739;BME280;51175;51.186;0.276;2024-02-04T01:33:47;102314.72;;;11.91;90.69
64739;BME280;51175;51.186;0.276;2024-02-04T01:34:18;102321.66;;;11.92;90.38
64739;BME280;51175;51.186;0.276;2024-02-04T01:34:48;102313.72;;;11.92;90.53
64739;BME280;51175;51.186;0.276;2024-02-04T01:35:19;102312.06;;;11.91;90.34
64739;BME280;51175;51.186;0.276;2024-02-04T01:35:50;102318.41;;;11.90;90.60
64739;BME280;51175;51.186;0.276;2024-02-04T01:36:20;102310.47;;;11.90;90.26
64739;BME280;51175;51.186;0.276;2024-02-04T01:36:51;102317.13;;;11.92;90.55
64739;BME280;51175;51.186;0.276;2024-02-04T01:37:21;102322.44;;;11.92;90.39
64739;BME280;51175;51.186;0.276;2024-02-04T01:37:52;102318.19;;;11.91;90.73
64739;BME280;51175;51.186;0.276;2024-02-04T01:38:22;102317.38;;;11.91;90.51
64739;BME280;51175;51.186;0.276;2024-02-04T01:38:53;102310.47;;;11.90;90.61
64739;BME280;51175;51.186;0.276;2024-02-04T01:39:23;102314.72;;;11.91;90.64
64739;BME280;51175;51.186;0.276;2024-02-04T01:39:54;102310.25;;;11.91;90.65
64739;BME280;51175;51.186;0.276;2024-02-04T01:40:24;102315.75;;;11.90;90.59
64739;BME280;51175;51.186;0.276;2024-02-04T01:40:54;102318.41;;;11.90;90.52
64739;BME280;51175;51.186;0.276;2024-02-04T01:41:25;102316.81;;;11.89;90.61
64739;BME280;51175;51.186;0.276;2024-02-04T01:41:57;102317.59;;;11.89;90.70
64739;BME280;51175;51.186;0.276;2024-02-04T01:42:37;102329.00;;;11.90;90.46
64739;BME280;51175;51.186;0.276;2024-02-04T01:43:07;102313.34;;;11.88;90.53
64739;BME280;51175;51.186;0.276;2024-02-04T01:43:38;102323.94;;;11.88;90.49
64739;BME280;51175;51.186;0.276;2024-02-04T01:44:09;102319.66;;;11.87;90.56
64739;BME280;51175;51.186;0.276;2024-02-04T01:44:39;102319.44;;;11.89;90.61
64739;BME280;51175;51.186;0.276;2024-02-04T01:45:10;102323.94;;;11.88;90.29
64739;BME280;51175;51.186;0.276;2024-02-04T01:45:40;102325.75;;;11.88;90.53
64739;BME280;51175;51.186;0.276;2024-02-04T01:46:11;102325.53;;;11.89;90.47
64739;BME280;51175;51.186;0.276;2024-02-04T01:46:42;102333.47;;;11.89;90.45
64739;BME280;51175;51.186;0.276;2024-02-04T01:47:12;102334.50;;;11.88;90.59
64739;BME280;51175;51.186;0.276;2024-02-04T01:47:43;102330.81;;;11.89;90.84
64739;BME280;51175;51.186;0.276;2024-02-04T01:48:14;102330.81;;;11.89;90.70
64739;BME280;51175;51.186;0.276;2024-02-04T01:48:45;102332.69;;;11.89;90.78
64739;BME280;51175;51.186;0.276;2024-02-04T01:49:16;102331.66;;;11.90;90.70
64739;BME280;51175;51.186;0.276;2024-02-04T01:49:46;102328.78;;;11.91;90.82
64739;BME280;51175;51.186;0.276;2024-02-04T01:50:17;102331.66;;;11.90;90.59
64739;BME280;51175;51.186;0.276;2024-02-04T01:50:49;102334.06;;;11.91;90.71
64739;BME280;51175;51.186;0.276;2024-02-04T01:51:21;102331.41;;;11.91;90.68
64739;BME280;51175;51.186;0.276;2024-02-04T01:51:53;102333.03;;;11.92;90.68
64739;BME280;51175;51.186;0.276;2024-02-04T01:52:23;102327.72;;;11.92;90.66
64739;BME280;51175;51.186;0.276;2024-02-04T01:52:54;102333.84;;;11.93;90.59
64739;BME280;51175;51.186;0.276;2024-02-04T01:53:26;102323.25;;;11.93;90.73
64739;BME280;51175;51.186;0.276;2024-02-04T01:53:58;102323.03;;;11.95;90.59
64739;BME280;51175;51.186;0.276;2024-02-04T01:54:30;102319.56;;;11.94;90.72
64739;BME280;51175;51.186;0.276;2024-02-04T01:55:03;102324.88;;;11.94;90.66
64739;BME280;51175;51.186;0.276;2024-02-04T01:55:35;102333.63;;;11.95;90.49
64739;BME280;51175;51.186;0.276;2024-02-04T01:56:05;102332.81;;;11.94;90.75
64739;BME280;51175;51.186;0.276;2024-02-04T01:56:36;102329.38;;;11.94;90.47
64739;BME280;51175;51.186;0.276;2024-02-04T01:57:13;102323.47;;;11.91;90.39
64739;BME280;51175;51.186;0.276;2024-02-04T01:57:48;102328.56;;;11.93;90.56
64739;BME280;51175;51.186;0.276;2024-02-04T01:58:19;102332.03;;;11.94;90.38
64739;BME280;51175;51.186;0.276;2024-02-04T01:58:50;102324.88;;;11.94;90.37
64739;BME280;51175;51.186;0.276;2024-02-04T01:59:22;102321.44;;;11.94;90.38
64739;BME280;51175;51.186;0.276;2024-02-04T01:59:58;102315.31;;;11.93;90.39
64739;BME280;51175;51.186;0.276;2024-02-04T02:00:29;102319.56;;;11.94;90.39
64739;BME280;51175;51.186;0.276;2024-02-04T02:00:59;102314.28;;;11.94;90.40
64739;BME280;51175;51.186;0.276;2024-02-04T02:01:31;102315.31;;;11.93;90.28
64739;BME280;51175;51.186;0.276;2024-02-04T02:02:01;102312.88;;;11.91;90.28
64739;BME280;51175;51.186;0.276;2024-02-04T02:02:34;102315.75;;;11.90;90.36
64739;BME280;51175;51.186;0.276;2024-02-04T02:03:11;102313.34;;;11.88;90.51
64739;BME280;51175;51.186;0.276;2024-02-04T02:03:41;102311.50;;;11.89;90.43
64739;BME280;51175;51.186;0.276;2024-02-04T02:04:12;102308.84;;;11.89;90.25
64739;BME280;51175;51.186;0.276;2024-02-04T02:04:44;102308.84;;;11.89;90.67
64739;BME280;51175;51.186;0.276;2024-02-04T02:05:14;102309.66;;;11.89;90.25
64739;BME280;51175;51.186;0.276;2024-02-04T02:05:45;102309.66;;;11.89;90.47
64739;BME280;51175;51.186;0.276;2024-02-04T02:06:16;102311.50;;;11.89;90.26
64739;BME280;51175;51.186;0.276;2024-02-04T02:06:48;102321.88;;;11.90;90.36
64739;BME280;51175;51.186;0.276;2024-02-04T02:07:18;102310.47;;;11.90;90.44
64739;BME280;51175;51.186;0.276;2024-02-04T02:07:51;102314.72;;;11.91;90.47
64739;BME280;51175;51.186;0.276;2024-02-04T02:08:21;102312.88;;;11.91;90.33
64739;BME280;51175;51.186;0.276;2024-02-04T02:08:53;102307.59;;;11.91;90.43
64739;BME280;51175;51.186;0.276;2024-02-04T02:09:25;102310.25;;;11.91;90.56
64739;BME280;51175;51.186;0.276;2024-02-04T02:09:56;102311.84;;;11.92;90.54
64739;BME280;51175;51.186;0.276;2024-02-04T02:10:27;102308.41;;;11.92;90.47
64739;BME280;51175;51.186;0.276;2024-02-04T02:11:05;102304.34;;;11.89;90.07
64739;BME280;51175;51.186;0.276;2024-02-04T02:11:42;102305.16;;;11.90;90.35
64739;BME280;51175;51.186;0.276;2024-02-04T02:12:27;102301.13;;;11.87;90.24
64739;BME280;51175;51.186;0.276;2024-02-04T02:13:34;102305.38;;;11.88;90.16
64739;BME280;51175;51.186;0.276;2024-02-04T02:14:11;102308.25;;;11.87;90.40
64739;BME280;51175;51.186;0.276;2024-02-04T02:14:50;102305.63;;;11.87;90.39
64739;BME280;51175;51.186;0.276;2024-02-04T02:15:26;102303.78;;;11.87;90.29
64739;BME280;51175;51.186;0.276;2024-02-04T02:16:15;102305.84;;;11.85;90.20
64739;BME280;51175;51.186;0.276;2024-02-04T02:16:48;102300.31;;;11.87;90.26
64739;BME280;51175;51.186;0.276;2024-02-04T02:17:24;102311.94;;;11.86;90.36
64739;BME280;51175;51.186;0.276;2024-02-04T02:18:03;102309.53;;;11.84;90.26
64739;BME280;51175;51.186;0.276;2024-02-04T02:20:23;102301.81;;;11.83;90.55
64739;BME280;51175;51.186;0.276;2024-02-04T02:21:25;102309.16;;;11.80;90.33
64739;BME280;51175;51.186;0.276;2024-02-04T02:22:02;102305.47;;;11.82;90.20
64739;BME280;51175;51.186;0.276;2024-02-04T02:23:14;102308.94;;;11.82;90.33
64739;BME280;51175;51.186;0.276;2024-02-04T02:24:42;102314.22;;;11.82;90.38
64739;BME280;51175;51.186;0.276;2024-02-04T02:25:13;102310.53;;;11.83;90.45
64739;BME280;51175;51.186;0.276;2024-02-04T02:25:46;102312.19;;;11.84;90.48
64739;BME280;51175;51.186;0.276;2024-02-04T02:26:16;102311.34;;;11.84;90.50
64739;BME280;51175;51.186;0.276;2024-02-04T02:26:47;102309.75;;;11.83;90.28
64739;BME280;51175;51.186;0.276;2024-02-04T02:27:18;102315.59;;;11.85;90.58
64739;BME280;51175;51.186;0.276;2024-02-04T02:27:49;102306.06;;;11.84;90.52
64739;BME280;51175;51.186;0.276;2024-02-04T02:28:20;102312.97;;;11.85;90.54
64739;BME280;51175;51.186;0.276;2024-02-04T02:28:50;102310.53;;;11.83;90.55
64739;BME280;51175;51.186;0.276;2024-02-04T02:29:21;102299.72;;;11.85;90.37
64739;BME280;51175;51.186;0.276;2024-02-04T02:29:51;102302.38;;;11.85;90.42
64739;BME280;51175;51.186;0.276;2024-02-04T02:30:22;102301.59;;;11.84;90.32
64739;BME280;51175;51.186;0.276;2024-02-04T02:30:52;102297.06;;;11.85;90.21
64739;BME280;51175;51.186;0.276;2024-02-04T02:31:23;102300.53;;;11.85;90.54
64739;BME280;51175;51.186;0.276;2024-02-04T02:31:53;102293.63;;;11.84;90.53
64739;BME280;51175;51.186;0.276;2024-02-04T02:32:24;102289.94;;;11.85;90.44
64739;BME280;51175;51.186;0.276;2024-02-04T02:32:54;102287.31;;;11.85;90.43
64739;BME280;51175;51.186;0.276;2024-02-04T02:33:25;102288.13;;;11.86;90.66
64739;BME280;51175;51.186;0.276;2024-02-04T02:33:55;102287.09;;;11.87;90.69
64739;BME280;51175;51.186;0.276;2024-02-04T02:34:26;102285.47;;;11.86;90.55
64739;BME280;51175;51.186;0.276;2024-02-04T02:34:57;102283.63;;;11.86;90.47
64739;BME280;51175;51.186;0.276;2024-02-04T02:35:27;102294.81;;;11.88;90.60
64739;BME280;51175;51.186;0.276;2024-02-04T02:36:00;102292.38;;;11.87;90.61
64739;BME280;51175;51.186;0.276;2024-02-04T02:36:43;102292.16;;;11.88;90.32
64739;BME280;51175;51.186;0.276;2024-02-04T02:37:29;102294.22;;;11.86;90.72
64739;BME280;51175;51.186;0.276;2024-02-04T02:38:24;102298.13;;;11.84;90.61
64739;BME280;51175;51.186;0.276;2024-02-04T02:39:35;102291.22;;;11.83;90.49
64739;BME280;51175;51.186;0.276;2024-02-04T02:40:54;102294.31;;;11.79;90.38
64739;BME280;51175;51.186;0.276;2024-02-04T02:41:29;102294.09;;;11.81;90.29
64739;BME280;51175;51.186;0.276;2024-02-04T02:42:01;102293.28;;;11.80;90.63
64739;BME280;51175;51.186;0.276;2024-02-04T02:42:35;102286.94;;;11.82;90.52
64739;BME280;51175;51.186;0.276;2024-02-04T02:43:11;102290.63;;;11.80;90.61
64739;BME280;51175;51.186;0.276;2024-02-04T02:43:43;102293.28;;;11.80;90.66
64739;BME280;51175;51.186;0.276;2024-02-04T02:44:14;102294.88;;;11.82;90.60
64739;BME280;51175;51.186;0.276;2024-02-04T02:44:47;102285.09;;;11.82;90.65
64739;BME280;51175;51.186;0.276;2024-02-04T02:45:19;102293.06;;;11.82;90.46
64739;BME280;51175;51.186;0.276;2024-02-04T02:45:50;102299.94;;;11.83;90.68
64739;BME280;51175;51.186;0.276;2024-02-04T02:46:22;102294.66;;;11.83;90.47
64739;BME280;51175;51.186;0.276;2024-02-04T02:46:54;102294.66;;;11.83;90.74
64739;BME280;51175;51.186;0.276;2024-02-04T02:47:27;102291.78;;;11.85;90.40
64739;BME280;51175;51.186;0.276;2024-02-04T02:47:59;102289.94;;;11.85;90.51
64739;BME280;51175;51.186;0.276;2024-02-04T02:48:31;102297.91;;;11.85;90.81
64739;BME280;51175;51.186;0.276;2024-02-04T02:49:01;102296.84;;;11.86;90.84
64739;BME280;51175;51.186;0.276;2024-02-04T02:49:32;102300.31;;;11.87;90.56
64739;BME280;51175;51.186;0.276;2024-02-04T02:50:05;102292.59;;;11.85;90.69
64739;BME280;51175;51.186;0.276;2024-02-04T02:50:36;102301.38;;;11.86;90.76
64739;BME280;51175;51.186;0.276;2024-02-04T02:51:06;102302.38;;;11.85;90.85
64739;BME280;51175;51.186;0.276;2024-02-04T02:51:37;102305.03;;;11.85;90.51
64739;BME280;51175;51.186;0.276;2024-02-04T02:52:10;102309.53;;;11.84;90.56
64739;BME280;51175;51.186;0.276;2024-02-04T02:52:40;102311.13;;;11.85;90.35
64739;BME280;51175;51.186;0.276;2024-02-04T02:53:11;102312.97;;;11.85;90.50
64739;BME280;51175;51.186;0.276;2024-02-04T02:53:41;102307.66;;;11.85;90.43
64739;BME280;51175;51.186;0.276;2024-02-04T02:54:12;102311.13;;;11.85;90.75
64739;BME280;51175;51.186;0.276;2024-02-04T02:54:42;102306.66;;;11.86;90.38